| time (UTC) | temp F | wind direction | speed knots | gust knots | rain 1hr in | rain 24hr in | rain mn in | humidity % | barometer mb |
| 20260504223033 | 46 | 0 | 0.0 | 0.0 | 0.00 | 0.00 | 0.00 | 92 | 1012.9 |
| 20260504221538 | 47 | 0 | 0.0 | 0.9 | 0.00 | 0.00 | 0.00 | 92 | 1012.8 |
| 20260504220046 | 47 | 0 | 0.0 | 0.0 | 0.00 | 0.00 | 0.00 | 91 | 1012.8 |
| 20260504214547 | 48 | 0 | 0.0 | 0.0 | 0.00 | 0.00 | 0.00 | 90 | 1012.9 |
| 20260504213042 | 49 | 0 | 0.0 | 0.0 | 0.00 | 0.00 | 0.00 | 90 | 1012.9 |
| 20260504211534 | 49 | 0 | 0.0 | 0.0 | 0.00 | 0.00 | 0.00 | 89 | 1013.1 |
| 20260504210040 | 50 | 0 | 0.0 | 0.0 | 0.00 | 0.00 | 0.00 | 88 | 1013.1 |
| 20260504204538 | 50 | 0 | 0.0 | 0.0 | 0.00 | 0.00 | 0.00 | 87 | 1013.2 |
| 20260504203038 | 51 | 0 | 0.0 | 0.0 | 0.00 | 0.00 | 0.00 | 86 | 1013.3 |
| 20260504201537 | 53 | 0 | 0.0 | 0.9 | 0.00 | 0.00 | 0.00 | 85 | 1013.3 |
| 20260504200041 | 54 | 0 | 0.0 | 0.0 | 0.00 | 0.00 | 0.00 | 82 | 1013.1 |
| 20260504194536 | 55 | 0 | 0.0 | 0.0 | 0.00 | 0.00 | 0.00 | 81 | 1013.1 |
| 20260504193037 | 56 | 0 | 0.0 | 0.0 | 0.00 | 0.00 | 0.00 | 80 | 1013.3 |
| 20260504191551 | 57 | 0 | 0.0 | 1.7 | 0.00 | 0.00 | 0.00 | 79 | 1013.1 |
| 20260504190038 | 58 | 0 | 0.0 | 1.7 | 0.00 | 0.00 | 0.00 | 78 | 1013.1 |
| 20260504184548 | 59 | 34 | 0.0 | 2.6 | 0.00 | 0.00 | 0.00 | 78 | 1013.1 |
| 20260504183041 | 59 | 0 | 0.0 | 3.5 | 0.00 | 0.00 | 0.00 | 77 | 1013.0 |
| 20260504181546 | 60 | 0 | 0.0 | 2.6 | 0.00 | 0.00 | 0.00 | 76 | 1012.8 |
| 20260504180036 | 60 | 0 | 0.9 | 6.1 | 0.00 | 0.00 | 0.00 | 74 | 1012.8 |
| 20260504174535 | 61 | 69 | 0.9 | 5.2 | 0.00 | 0.00 | 0.00 | 73 | 1012.4 |
| 20260504173032 | 62 | 5 | 0.9 | 6.1 | 0.00 | 0.00 | 0.00 | 72 | 1012.3 |
| 20260504171532 | 62 | 33 | 0.9 | 3.5 | 0.00 | 0.00 | 0.00 | 71 | 1012.3 |
| 20260504081536 | 66 | 319 | 5.2 | 10.4 | 0.00 | 0.00 | 0.00 | 67 | 1011.8 |
| 20260504044541 | 60 | 0 | 0.0 | 0.9 | 0.00 | 0.00 | 0.00 | 73 | 1010.3 |
| 20260504043035 | 60 | 0 | 0.0 | 2.6 | 0.00 | 0.00 | 0.00 | 72 | 1010.5 |
| 20260504041532 | 59 | 192 | 0.0 | 0.9 | 0.00 | 0.00 | 0.00 | 72 | 1010.6 |
| 20260504040033 | 59 | 263 | 0.9 | 2.6 | 0.00 | 0.00 | 0.00 | 71 | 1010.4 |
| 20260504034552 | 59 | 0 | 0.0 | 0.9 | 0.00 | 0.00 | 0.00 | 70 | 1010.5 |
| 20260504033044 | 60 | 0 | 0.0 | 2.6 | 0.00 | 0.00 | 0.00 | 68 | 1010.2 |
| 20260504031535 | 60 | 0 | 0.0 | 0.9 | 0.00 | 0.00 | 0.00 | 67 | 1010.3 |
| 20260504030045 | 61 | 0 | 0.0 | 1.7 | 0.00 | 0.00 | 0.00 | 66 | 1009.8 |
| 20260504024544 | 61 | 285 | 0.9 | 2.6 | 0.00 | 0.00 | 0.00 | 65 | 1010.2 |
| 20260504023049 | 61 | 0 | 0.0 | 0.0 | 0.00 | 0.00 | 0.00 | 64 | 1010.1 |
| 20260504021535 | 62 | 259 | 0.0 | 2.6 | 0.00 | 0.00 | 0.00 | 63 | 1009.9 |
| 20260504020032 | 62 | 259 | 1.7 | 5.2 | 0.00 | 0.00 | 0.00 | 61 | 1009.9 |
| 20260504014544 | 63 | 0 | 0.0 | 2.6 | 0.00 | 0.00 | 0.00 | 60 | 1009.6 |
| 20260504013045 | 64 | 277 | 1.7 | 6.1 | 0.00 | 0.00 | 0.00 | 58 | 1009.5 |
| 20260504011536 | 65 | 258 | 4.3 | 7.8 | 0.00 | 0.00 | 0.00 | 55 | 1009.5 |
| 20260504010044 | 65 | 303 | 3.5 | 9.6 | 0.00 | 0.00 | 0.00 | 54 | 1009.4 |
| 20260504004536 | 65 | 268 | 2.6 | 7.8 | 0.00 | 0.00 | 0.00 | 54 | 1009.4 |
| 20260504003036 | 64 | 266 | 2.6 | 6.1 | 0.00 | 0.00 | 0.00 | 58 | 1009.5 |
| 20260504001540 | 60 | 274 | 1.7 | 5.2 | 0.00 | 0.00 | 0.00 | 71 | 1009.4 |
| 20260504000339 | 58 | 0 | 0.0 | 0.0 | 0.00 | 0.00 | 0.00 | 76 | 1009.6 |
| 20260503234541 | 58 | 0 | 0.0 | 0.0 | 0.00 | 0.00 | 0.00 | 76 | 1009.4 |
| 20260503233040 | 58 | 0 | 0.0 | 0.0 | 0.00 | 0.00 | 0.00 | 76 | 1009.5 |
| 20260503231540 | 58 | 0 | 0.0 | 0.0 | 0.00 | 0.00 | 0.00 | 76 | 1009.6 |
| 20260503230040 | 57 | 0 | 0.0 | 0.0 | 0.00 | 0.00 | 0.00 | 77 | 1009.4 |
| 20260503224536 | 57 | 0 | 0.0 | 0.0 | 0.00 | 0.00 | 0.00 | 77 | 1009.5 |